Airfield :
LOGIN :

Register | Disclaimer

   EN    FR    IT 

 










Legend :    VFR   Marginal VFR   IFR   Intensive IFR   Very Intensive IFR
Visi :
Ceiling :
>= 8 km
>= 3000ft
5 to 8 km
1000 to 3000 ft
1500m to 5 km
500 to 1000 ft
800 to 1500m
200 to 500 ft
< 800m
< 200 ft
Symbols :   Thunderstorms  Fog  Heavy snow  Heavy precipitations  Wind > 20 kt
SIGMETs :     Misc.  Thunderstorms  Icing  Turbulence  Mountain Waves  Volcanic Ashes






- Airport Elevation : 289 ft


LFYR - Romorantin Pruniers

CURRENT METAR :
  • 310800Z AUTO 05008KT 010V090 CAVOK 20/08 Q1017

EXPIRED METARs :
  • 310730Z AUTO 06008KT 020V090 CAVOK 20/09 Q1017
  • 310700Z AUTO 06007KT 030V090 CAVOK 18/07 Q1017
  • 310630Z AUTO 06007KT CAVOK 17/08 Q1017
  • 310600Z AUTO 06006KT 020V080 CAVOK 16/07 Q1017
  • 310530Z AUTO 06006KT CAVOK 15/07 Q1016
  • 310500Z AUTO 06005KT 020V090 CAVOK 13/06 Q1016

Expired Forecast.



MET'MAP, your aeronautical weather chart ! - Copyright ORBIFLY December 2007 - Disclaimer

ORBIFLY MET'MAP TEAM :

Programming & Development : Alexandra Zaïnal
Concept & original design : Baudouin d'Aumeries
Assistance for programming : Marc-Olivier Méhu
Technical & hardware support : Manuel Goepfert

Contact : metmap@orbifly.com




SOURCES & CREDITS :

   NOAA